This is the latest recevied weather packets stored in our database for station/object N4QD-13. If no packets are shown the sender has not sent any weather packets the latest 10 day(s).
| Time | Temp. | Humidity | Pressure | Rain* | Wind** | Luminosity | Snow |
|---|---|---|---|---|---|---|---|
| 1777908685 | 20° C | 46% | 1015.3 hPa | 0 mm | - | 690 W/m² | - |
| 1777908382 | 19.44° C | 45% | 1015.2 hPa | 0 mm | - | 693 W/m² | - |
| 1777908078 | 18.89° C | 46% | 1015.6 hPa | 0 mm | - | 659 W/m² | - |
| 1777907774 | 19.44° C | 47% | 1015.6 hPa | 0 mm | - | 674 W/m² | - |
| 1777907469 | 18.89° C | 46% | 1015.4 hPa | 0 mm | - | 706 W/m² | - |
| 1777907166 | 18.33° C | 46% | 1015.6 hPa | 0 mm | - | 693 W/m² | - |
| 1777906863 | 17.78° C | 49% | 1015.5 hPa | 0 mm | - | 707 W/m² | - |
| 1777906561 | 18.89° C | 48% | 1015.7 hPa | 0 mm | - | 246 W/m² | - |
| 1777906255 | 18.33° C | 48% | 1015.6 hPa | 0 mm | - | 625 W/m² | - |
| 1777905952 | 18.33° C | 50% | 1015.5 hPa | 0 mm | - | 628 W/m² | - |
| 1777905649 | 17.78° C | 49% | 1015.6 hPa | 0 mm | - | 603 W/m² | - |
| 1777905346 | 17.78° C | 50% | 1015.6 hPa | 0 mm | - | 595 W/m² | - |
| 1777905044 | 17.78° C | 49% | 1015.6 hPa | 0 mm | - | 555 W/m² | - |
| 1777904741 | 17.78° C | 48% | 1015.7 hPa | 0 mm | - | 563 W/m² | - |
| 1777904438 | 17.78° C | 49% | 1015.8 hPa | 0 mm | - | 552 W/m² | - |
| 1777904135 | 17.22° C | 50% | 1015.7 hPa | 0 mm | - | 562 W/m² | - |
| 1777903832 | 17.22° C | 49% | 1015.3 hPa | 0 mm | - | 547 W/m² | - |
| 1777903528 | 17.22° C | 49% | 1015.3 hPa | 0 mm | - | 529 W/m² | - |
| 1777903225 | 16.67° C | 49% | 1015.5 hPa | 0 mm | - | 521 W/m² | - |
| 1777902921 | 16.11° C | 52% | 1015.4 hPa | 0 mm | - | 514 W/m² | - |
| 1777902618 | 16.67° C | 50% | 1015.7 hPa | 0 mm | - | 519 W/m² | - |
| 1777902315 | 16.11° C | 56% | 1015.8 hPa | 0 mm | - | 476 W/m² | - |
| 1777902012 | 16.11° C | 58% | 1015.9 hPa | 0 mm | - | 476 W/m² | - |
| 1777901711 | 15.56° C | 61% | 1015.9 hPa | 0 mm | - | 472 W/m² | - |
| 1777901408 | 15.56° C | 61% | 1016.2 hPa | 0 mm | - | 459 W/m² | - |
* Rain latest hour (hover to see other rain measurements)
** Current wind speed in m/s (hover to see current wind gust speed)